createdAt,value
2018-03-01T00:00:34.614Z,21.10
2018-03-01T00:03:08.286Z,21.70
2018-03-01T00:05:42.046Z,21.20
2018-03-01T00:08:16.636Z,21.50
2018-03-01T00:10:50.520Z,22.20
2018-03-01T00:13:24.320Z,21.60
2018-03-01T00:15:57.973Z,21.80
2018-03-01T00:18:31.677Z,20.80
2018-03-01T00:21:06.350Z,22.00
2018-03-01T00:23:40.058Z,21.90
2018-03-01T00:26:13.671Z,22.10
2018-03-01T00:28:48.735Z,22.10
2018-03-01T00:31:22.469Z,22.30
2018-03-01T00:33:56.996Z,21.20
2018-03-01T00:36:31.675Z,21.30
2018-03-01T00:39:05.547Z,22.30
2018-03-01T00:41:39.451Z,21.80
2018-03-01T00:44:13.187Z,21.70
2018-03-01T00:46:46.835Z,22.00
2018-03-01T00:49:21.413Z,21.90
2018-03-01T00:51:55.045Z,21.90
2018-03-01T00:54:29.625Z,21.90
2018-03-01T00:57:04.194Z,21.50
2018-03-01T00:59:37.825Z,21.50
2018-03-01T01:02:11.837Z,22.20
2018-03-01T01:04:45.711Z,22.70
2018-03-01T01:07:21.282Z,22.20
2018-03-01T01:09:54.883Z,22.10
2018-03-01T01:12:30.023Z,22.00
2018-03-01T01:15:04.302Z,21.90
2018-03-01T01:17:37.989Z,22.00
2018-03-01T01:20:11.713Z,21.70
2018-03-01T01:22:45.462Z,22.50
2018-03-01T01:25:19.125Z,22.00
2018-03-01T01:27:53.189Z,22.60
2018-03-01T01:30:26.988Z,22.40
2018-03-01T01:33:01.484Z,22.40
2018-03-01T01:35:35.633Z,22.40
2018-03-01T01:38:09.421Z,22.90
2018-03-01T01:40:43.322Z,22.10
2018-03-01T01:43:17.360Z,22.70
2018-03-01T01:45:51.130Z,22.80
2018-03-01T01:48:24.834Z,22.60
2018-03-01T01:51:06.343Z,22.30
2018-03-01T01:53:40.711Z,22.60
2018-03-01T01:56:14.603Z,22.20
2018-03-01T01:58:48.362Z,22.30
2018-03-01T02:01:22.140Z,22.20
2018-03-01T02:03:56.562Z,22.00
2018-03-01T02:06:31.036Z,21.90
2018-03-01T02:09:05.470Z,22.70
2018-03-01T02:11:39.093Z,22.70
2018-03-01T02:14:13.576Z,22.40
2018-03-01T02:16:47.770Z,22.10
2018-03-01T02:19:22.375Z,22.60
2018-03-01T02:21:56.866Z,22.20
2018-03-01T02:24:30.588Z,22.20
2018-03-01T02:27:04.358Z,22.90
2018-03-01T02:29:38.564Z,22.80
2018-03-01T02:32:12.649Z,22.80
2018-03-01T02:34:46.649Z,22.70
2018-03-01T02:37:21.815Z,22.10
2018-03-01T02:39:55.622Z,22.10
2018-03-01T02:42:30.233Z,23.30
2018-03-01T02:45:03.941Z,23.40
2018-03-01T02:47:39.458Z,22.90
2018-03-01T02:50:14.044Z,22.40
2018-03-01T02:52:48.176Z,22.40
2018-03-01T02:55:21.902Z,22.60
2018-03-01T02:57:55.678Z,22.60
2018-03-01T03:00:29.413Z,22.30
2018-03-01T03:03:03.143Z,23.30
2018-03-01T03:05:36.827Z,23.30
2018-03-01T03:08:10.634Z,23.90
2018-03-01T03:10:44.310Z,23.50
2018-03-01T03:13:18.052Z,23.70
2018-03-01T03:15:51.877Z,23.60
2018-03-01T03:18:25.663Z,23.60
2018-03-01T03:20:59.381Z,23.80
2018-03-01T03:23:33.405Z,23.90
2018-03-01T03:26:07.002Z,23.70
2018-03-01T03:28:40.715Z,23.50
2018-03-01T03:31:14.407Z,23.70
2018-03-01T03:33:48.932Z,23.90
2018-03-01T03:36:22.729Z,23.90
2018-03-01T03:38:57.253Z,24.90
2018-03-01T03:41:31.028Z,24.90
2018-03-01T03:44:05.569Z,24.20
2018-03-01T03:46:39.382Z,24.20
2018-03-01T03:49:13.114Z,24.90
2018-03-01T03:51:46.894Z,24.80
2018-03-01T03:54:22.397Z,24.80
2018-03-01T03:56:56.248Z,25.30
2018-03-01T03:59:31.132Z,25.10
2018-03-01T04:02:04.810Z,24.50
2018-03-01T04:04:38.582Z,25.20
2018-03-01T04:07:12.425Z,25.80
2018-03-01T04:09:45.998Z,25.60
2018-03-01T04:12:19.848Z,26.10
2018-03-01T04:14:53.539Z,26.30
2018-03-01T04:17:27.107Z,25.60
2018-03-01T04:20:00.915Z,25.80
2018-03-01T04:22:37.628Z,25.80
2018-03-01T04:25:11.409Z,26.30
2018-03-01T04:27:45.073Z,26.70
2018-03-01T04:30:18.690Z,26.60
2018-03-01T04:32:52.489Z,26.40
2018-03-01T04:35:26.944Z,26.60
2018-03-01T04:38:00.533Z,26.40
2018-03-01T04:40:34.267Z,26.60
2018-03-01T04:43:08.022Z,26.70
2018-03-01T04:45:41.784Z,26.30
2018-03-01T04:48:16.260Z,27.30
2018-03-01T04:50:49.871Z,27.30
2018-03-01T04:53:23.506Z,26.50
2018-03-01T04:55:57.101Z,27.40
2018-03-01T04:58:30.820Z,27.10
2018-03-01T05:01:05.498Z,27.40
2018-03-01T05:03:39.204Z,27.10
2018-03-01T05:06:13.956Z,26.70
2018-03-01T05:08:47.676Z,26.70
2018-03-01T05:11:21.467Z,27.20
2018-03-01T05:13:56.086Z,27.50
2018-03-01T05:16:30.488Z,27.50
2018-03-01T05:19:06.744Z,27.50
2018-03-01T05:21:46.803Z,27.50
2018-03-01T05:24:23.365Z,27.50
2018-03-01T05:26:58.549Z,27.50
2018-03-01T05:29:34.015Z,27.40
2018-03-01T05:32:08.644Z,27.40
2018-03-01T05:34:42.345Z,27.40
2018-03-01T05:37:16.917Z,27.70
2018-03-01T05:39:50.709Z,28.20
2018-03-01T05:42:24.529Z,27.70
2018-03-01T05:44:58.893Z,28.20
2018-03-01T05:47:32.608Z,28.40
2018-03-01T05:50:06.365Z,29.00
2018-03-01T05:52:40.142Z,27.40
2018-03-01T05:55:14.565Z,28.50
2018-03-01T05:57:50.060Z,28.30
2018-03-01T06:00:23.833Z,27.40
2018-03-01T06:02:58.256Z,28.20
2018-03-01T06:05:33.601Z,27.40
2018-03-01T06:08:07.421Z,27.40
2018-03-01T06:10:41.928Z,27.50
2018-03-01T06:13:15.669Z,27.40
2018-03-01T06:15:50.673Z,28.00
2018-03-01T06:18:25.160Z,28.10
2018-03-01T06:20:58.988Z,28.20
2018-03-01T06:23:32.914Z,27.50
2018-03-01T06:26:06.645Z,28.30
2018-03-01T06:28:41.157Z,27.70
2018-03-01T06:31:14.754Z,27.50
2018-03-01T06:33:48.514Z,27.50
2018-03-01T06:36:24.723Z,27.50
2018-03-01T06:38:59.398Z,27.50
2018-03-01T06:41:33.189Z,27.40
2018-03-01T06:44:07.238Z,27.10
2018-03-01T06:46:41.541Z,27.10
2018-03-01T06:49:15.283Z,27.10
2018-03-01T06:51:49.246Z,26.50
2018-03-01T06:54:24.710Z,26.50
2018-03-01T06:56:59.734Z,26.10
2018-03-01T06:59:34.146Z,27.00
2018-03-01T07:02:08.963Z,25.90
2018-03-01T07:04:42.671Z,26.10
2018-03-01T07:07:16.485Z,26.00
2018-03-01T07:09:50.117Z,26.30
2018-03-01T07:12:23.847Z,26.00
2018-03-01T07:14:57.648Z,25.60
2018-03-01T07:17:31.349Z,25.90
2018-03-01T07:20:05.091Z,25.30
2018-03-01T07:22:38.873Z,25.50
2018-03-01T07:25:12.602Z,25.20
2018-03-01T07:27:46.539Z,25.10
2018-03-01T07:30:20.220Z,25.20
2018-03-01T07:32:54.850Z,24.30
2018-03-01T07:35:30.087Z,24.80
2018-03-01T07:38:05.120Z,24.80
2018-03-01T07:40:38.911Z,24.70
2018-03-01T07:43:12.617Z,23.60
2018-03-01T07:45:46.358Z,25.00
2018-03-01T07:48:20.910Z,24.30
2018-03-01T07:50:54.446Z,24.30
2018-03-01T07:53:28.321Z,23.90
2018-03-01T07:56:02.055Z,23.30
2018-03-01T07:58:35.765Z,22.90
2018-03-01T08:01:09.464Z,23.30
2018-03-01T08:03:43.112Z,22.80
2018-03-01T08:06:16.832Z,22.50
2018-03-01T08:08:50.601Z,22.60
2018-03-01T08:11:24.362Z,23.50
2018-03-01T08:13:58.117Z,22.30
2018-03-01T08:16:31.785Z,22.40
2018-03-01T08:19:05.541Z,22.90
2018-03-01T08:21:39.283Z,22.60
2018-03-01T08:24:13.907Z,22.40
2018-03-01T08:26:48.340Z,22.20
2018-03-01T08:29:22.114Z,22.20
2018-03-01T08:31:55.996Z,21.50
2018-03-01T08:34:29.839Z,22.20
2018-03-01T08:37:03.660Z,21.60
2018-03-01T08:39:37.346Z,20.90
2018-03-01T08:42:11.044Z,20.80
2018-03-01T08:44:45.690Z,21.60
2018-03-01T08:47:20.061Z,21.00
2018-03-01T08:49:53.815Z,20.40
2018-03-01T08:52:27.592Z,20.40
2018-03-01T08:55:01.275Z,20.90
2018-03-01T08:57:35.033Z,20.60
2018-03-01T09:00:08.869Z,20.10
2018-03-01T09:02:42.545Z,19.50
2018-03-01T09:05:16.353Z,19.00
2018-03-01T09:07:50.917Z,18.30
2018-03-01T09:10:24.645Z,18.30
2018-03-01T09:12:59.108Z,17.60
2018-03-01T09:15:32.888Z,17.60
2018-03-01T09:18:06.621Z,18.50
2018-03-01T09:20:40.379Z,19.00
2018-03-01T09:23:14.159Z,18.00
2018-03-01T09:25:47.855Z,17.80
2018-03-01T09:28:21.554Z,17.70
2018-03-01T09:30:55.130Z,18.80
2018-03-01T09:33:28.843Z,17.60
2018-03-01T09:36:02.554Z,17.00
2018-03-01T09:38:36.326Z,16.80
2018-03-01T09:41:18.990Z,17.50
2018-03-01T09:43:52.813Z,16.60
2018-03-01T09:46:26.512Z,17.30
2018-03-01T09:49:00.248Z,18.00
2018-03-01T09:51:34.742Z,17.00
2018-03-01T09:54:08.505Z,16.80
2018-03-01T09:56:42.105Z,15.40
2018-03-01T09:59:15.744Z,15.70
2018-03-01T10:01:49.469Z,15.50
2018-03-01T10:04:23.527Z,15.50
2018-03-01T10:06:57.216Z,15.30
2018-03-01T10:09:31.077Z,16.20
2018-03-01T10:12:04.780Z,14.80
2018-03-01T10:14:39.064Z,15.30
2018-03-01T10:17:12.887Z,14.00
2018-03-01T10:19:48.418Z,13.60
2018-03-01T10:22:22.136Z,13.50
2018-03-01T10:24:55.957Z,12.40
2018-03-01T10:27:29.733Z,13.30
2018-03-01T10:30:03.553Z,14.00
2018-03-01T10:32:37.281Z,12.40
2018-03-01T10:35:11.296Z,12.30
2018-03-01T10:37:46.304Z,12.30
2018-03-01T10:40:20.088Z,12.30
2018-03-01T10:42:54.060Z,11.60
2018-03-01T10:45:27.826Z,11.50
2018-03-01T10:48:01.574Z,13.00
2018-03-01T10:50:35.168Z,13.00
2018-03-01T10:53:08.737Z,12.40
2018-03-01T10:55:42.517Z,11.50
2018-03-01T10:58:18.405Z,12.70
2018-03-01T11:01:00.112Z,11.90
2018-03-01T11:03:34.763Z,11.00
2018-03-01T11:06:08.350Z,10.70
2018-03-01T11:08:42.034Z,10.80
2018-03-01T11:11:15.775Z,10.80
2018-03-01T11:13:49.748Z,11.10
2018-03-01T11:16:24.716Z,11.60
2018-03-01T11:18:59.753Z,11.40
2018-03-01T11:21:33.500Z,11.00
2018-03-01T11:24:08.123Z,12.30
2018-03-01T11:26:42.641Z,11.40
2018-03-01T11:29:16.287Z,9.90
2018-03-01T11:31:51.673Z,11.40
2018-03-01T11:34:25.396Z,11.30
2018-03-01T11:36:59.392Z,12.80
2018-03-01T11:39:33.929Z,10.50
2018-03-01T11:42:08.583Z,10.20
2018-03-01T11:44:42.157Z,10.40
2018-03-01T11:47:15.894Z,9.40
2018-03-01T11:49:49.732Z,10.00
2018-03-01T11:52:25.003Z,9.60
2018-03-01T11:54:58.566Z,9.70
2018-03-01T11:57:32.353Z,9.70
2018-03-01T12:00:05.937Z,8.70
2018-03-01T12:02:39.529Z,9.80
2018-03-01T12:05:13.692Z,9.80
2018-03-01T12:07:47.469Z,7.60
2018-03-01T12:10:22.296Z,8.30
2018-03-01T12:12:55.968Z,7.70
2018-03-01T12:15:29.694Z,8.00
2018-03-01T12:18:04.219Z,9.10
2018-03-01T12:20:37.870Z,9.20
2018-03-01T12:23:12.529Z,8.60
2018-03-01T12:25:46.251Z,8.00
2018-03-01T12:28:19.986Z,8.80
2018-03-01T12:30:53.783Z,5.90
2018-03-01T12:33:27.567Z,9.00
2018-03-01T12:36:02.097Z,6.60
2018-03-01T12:38:35.913Z,6.60
2018-03-01T12:41:09.601Z,7.00
2018-03-01T12:43:43.273Z,6.00
2018-03-01T12:46:16.905Z,5.30
2018-03-01T12:48:50.589Z,7.40
2018-03-01T12:51:25.310Z,5.20
2018-03-01T12:53:58.985Z,6.70
2018-03-01T12:56:32.739Z,5.80
2018-03-01T12:59:07.001Z,6.00
2018-03-01T13:01:40.598Z,7.10
2018-03-01T13:04:15.143Z,6.70
2018-03-01T13:06:48.741Z,5.40
2018-03-01T13:09:22.388Z,5.90
2018-03-01T13:11:56.922Z,5.00
2018-03-01T13:14:31.787Z,1.00
2018-03-01T13:17:05.442Z,1.00
2018-03-01T13:19:39.289Z,1.90
2018-03-01T13:22:12.964Z,1.00
2018-03-01T13:24:50.065Z,1.00
2018-03-01T13:27:23.824Z,1.00
2018-03-01T13:29:57.526Z,1.00
2018-03-01T13:32:33.224Z,1.00
2018-03-01T13:35:07.777Z,1.00
2018-03-01T13:37:42.117Z,1.00
2018-03-01T13:40:15.873Z,1.00
2018-03-01T13:42:50.348Z,1.00
2018-03-01T13:45:26.029Z,1.00
2018-03-01T13:48:02.687Z,1.00
2018-03-01T13:50:36.372Z,1.00
2018-03-01T13:53:09.993Z,1.00
2018-03-01T13:55:44.518Z,1.00
2018-03-01T13:58:18.893Z,1.00
2018-03-01T14:00:53.427Z,1.00
2018-03-01T14:03:27.599Z,1.00
2018-03-01T14:06:07.967Z,1.00
2018-03-01T14:08:41.622Z,1.00
2018-03-01T14:11:15.431Z,1.00
2018-03-01T14:13:49.812Z,1.00
2018-03-01T14:16:23.429Z,1.00
2018-03-01T14:19:02.860Z,1.00
2018-03-01T14:21:52.332Z,1.00
2018-03-01T14:24:26.466Z,1.00
2018-03-01T14:27:05.270Z,1.00
2018-03-01T14:29:39.514Z,1.00
2018-03-01T14:32:13.218Z,1.00
2018-03-01T14:34:47.954Z,1.00
2018-03-01T14:37:21.704Z,1.00
2018-03-01T14:39:55.477Z,1.00
2018-03-01T14:42:29.164Z,1.00
2018-03-01T14:45:03.876Z,1.00
2018-03-01T14:47:38.523Z,1.00
2018-03-01T14:50:12.331Z,1.00
2018-03-01T14:52:45.984Z,1.00
2018-03-01T14:55:21.433Z,1.00
2018-03-01T14:57:55.230Z,1.00
2018-03-01T15:00:29.719Z,1.00
2018-03-01T15:03:07.837Z,1.00
2018-03-01T15:05:46.079Z,1.00
2018-03-01T15:08:20.473Z,1.00
2018-03-01T15:10:54.143Z,1.00
2018-03-01T15:13:30.819Z,1.00
2018-03-01T15:16:05.266Z,1.00
2018-03-01T15:18:42.743Z,1.00
2018-03-01T15:21:17.084Z,1.00
2018-03-01T15:23:50.809Z,1.00
2018-03-01T15:26:26.798Z,1.00
2018-03-01T15:29:01.266Z,1.00
2018-03-01T15:31:38.868Z,1.00
2018-03-01T15:34:13.666Z,1.00
2018-03-01T15:36:48.799Z,1.00
2018-03-01T15:39:23.265Z,1.00
2018-03-01T15:41:57.051Z,1.00
2018-03-01T15:44:30.904Z,1.00
2018-03-01T15:47:10.711Z,1.00
2018-03-01T15:49:45.860Z,1.00
2018-03-01T15:52:21.447Z,1.00
2018-03-01T15:54:56.161Z,1.00
2018-03-01T15:57:30.523Z,1.00
2018-03-01T16:00:04.249Z,1.00
2018-03-01T16:02:38.255Z,1.00
2018-03-01T16:05:12.025Z,1.00
2018-03-01T16:07:45.804Z,1.00
2018-03-01T16:10:19.490Z,1.00
2018-03-01T16:12:53.121Z,1.60
2018-03-01T16:15:26.893Z,5.30
2018-03-01T16:18:00.642Z,7.20
2018-03-01T16:20:34.406Z,9.10
2018-03-01T16:23:15.457Z,10.10
2018-03-01T16:25:49.271Z,10.90
2018-03-01T16:28:23.031Z,11.20
2018-03-01T16:30:58.162Z,11.60
2018-03-01T16:33:32.288Z,11.30
2018-03-01T16:36:06.084Z,12.10
2018-03-01T16:38:40.460Z,12.00
2018-03-01T16:41:14.958Z,13.20
2018-03-01T16:43:48.735Z,13.50
2018-03-01T16:46:22.570Z,12.80
2018-03-01T16:48:57.433Z,13.00
2018-03-01T16:51:31.139Z,13.90
2018-03-01T16:54:05.105Z,13.80
2018-03-01T16:56:39.416Z,14.20
2018-03-01T16:59:13.327Z,15.00
2018-03-01T17:01:47.777Z,13.90
2018-03-01T17:04:22.338Z,14.60
2018-03-01T17:06:56.974Z,14.80
2018-03-01T17:09:30.772Z,14.70
2018-03-01T17:12:04.495Z,15.20
2018-03-01T17:14:40.416Z,16.10
2018-03-01T17:17:14.425Z,16.20
2018-03-01T17:19:49.043Z,16.10
2018-03-01T17:22:22.883Z,16.10
2018-03-01T17:24:56.466Z,16.10
2018-03-01T17:27:30.129Z,16.10
2018-03-01T17:30:03.810Z,16.00
2018-03-01T17:32:37.501Z,16.00
2018-03-01T17:35:11.158Z,16.30
2018-03-01T17:37:44.895Z,15.90
2018-03-01T17:40:18.615Z,15.90
2018-03-01T17:42:52.605Z,15.90
2018-03-01T17:45:28.041Z,16.30
2018-03-01T17:48:03.562Z,16.60
2018-03-01T17:50:37.366Z,15.90
2018-03-01T17:53:11.088Z,15.90
2018-03-01T17:55:45.155Z,16.50
2018-03-01T17:58:20.354Z,15.80
2018-03-01T18:00:54.959Z,15.80
2018-03-01T18:03:28.608Z,15.60
2018-03-01T18:06:02.301Z,15.80
2018-03-01T18:08:36.077Z,15.80
2018-03-01T18:11:10.646Z,15.80
2018-03-01T18:13:44.250Z,15.80
2018-03-01T18:16:18.633Z,15.70
2018-03-01T18:18:52.444Z,15.70
2018-03-01T18:21:27.228Z,16.10
2018-03-01T18:24:00.972Z,16.00
2018-03-01T18:26:35.012Z,15.70
2018-03-01T18:29:11.864Z,16.10
2018-03-01T18:31:46.647Z,16.30
2018-03-01T18:34:21.185Z,15.80
2018-03-01T18:36:55.662Z,15.80
2018-03-01T18:39:29.487Z,16.90
2018-03-01T18:42:03.226Z,16.30
2018-03-01T18:44:37.545Z,16.10
2018-03-01T18:47:13.837Z,16.60
2018-03-01T18:49:47.764Z,16.60
2018-03-01T18:52:22.087Z,16.70
2018-03-01T18:54:55.888Z,16.30
2018-03-01T18:57:29.578Z,17.00
2018-03-01T19:00:03.776Z,16.60
2018-03-01T19:02:37.482Z,17.40
2018-03-01T19:05:12.148Z,17.00
2018-03-01T19:07:45.745Z,16.70
2018-03-01T19:10:19.320Z,16.80
2018-03-01T19:12:53.076Z,16.80
2018-03-01T19:15:26.786Z,17.00
2018-03-01T19:18:00.528Z,17.00
2018-03-01T19:20:34.844Z,16.70
2018-03-01T19:23:08.696Z,17.50
2018-03-01T19:25:42.405Z,17.60
2018-03-01T19:28:16.232Z,17.30
2018-03-01T19:30:50.750Z,17.30
2018-03-01T19:33:25.168Z,17.30
2018-03-01T19:35:58.740Z,17.50
2018-03-01T19:38:32.343Z,17.30
2018-03-01T19:41:06.861Z,17.70
2018-03-01T19:43:40.573Z,17.70
2018-03-01T19:46:14.341Z,16.80
2018-03-01T19:48:48.168Z,16.70
2018-03-01T19:51:21.874Z,16.30
2018-03-01T19:53:55.666Z,15.90
2018-03-01T19:56:30.186Z,16.20
2018-03-01T19:59:04.779Z,16.20
2018-03-01T20:01:38.320Z,16.00
2018-03-01T20:04:12.689Z,15.40
2018-03-01T20:06:47.258Z,15.40
2018-03-01T20:09:21.979Z,15.40
2018-03-01T20:11:55.697Z,15.40
2018-03-01T20:14:29.441Z,14.70
2018-03-01T20:17:03.196Z,15.40
2018-03-01T20:19:38.594Z,14.90
2018-03-01T20:22:12.357Z,14.50
2018-03-01T20:24:46.025Z,14.00
2018-03-01T20:27:20.336Z,14.40
2018-03-01T20:29:54.706Z,14.80
2018-03-01T20:32:28.498Z,15.40
2018-03-01T20:35:06.386Z,15.40
2018-03-01T20:37:41.020Z,14.30
2018-03-01T20:40:14.604Z,13.90
2018-03-01T20:42:48.277Z,14.00
2018-03-01T20:45:21.974Z,14.20
2018-03-01T20:47:55.760Z,15.30
2018-03-01T20:50:29.463Z,13.70
2018-03-01T20:53:04.054Z,15.00
2018-03-01T20:55:38.014Z,14.80
2018-03-01T20:58:11.814Z,14.40
2018-03-01T21:00:45.467Z,14.40
2018-03-01T21:03:19.253Z,15.20
2018-03-01T21:05:53.015Z,15.20
2018-03-01T21:08:26.751Z,15.20
2018-03-01T21:11:01.307Z,15.10
2018-03-01T21:13:34.947Z,15.20
2018-03-01T21:16:08.577Z,15.10
2018-03-01T21:18:42.292Z,14.70
2018-03-01T21:21:15.985Z,15.10
2018-03-01T21:23:52.008Z,15.10
2018-03-01T21:26:25.723Z,15.10
2018-03-01T21:28:59.510Z,15.20
2018-03-01T21:31:33.200Z,15.00
2018-03-01T21:34:06.893Z,15.10
2018-03-01T21:36:40.501Z,15.20
2018-03-01T21:39:14.237Z,15.40
2018-03-01T21:41:47.937Z,15.00
2018-03-01T21:44:21.781Z,15.00
2018-03-01T21:47:06.313Z,15.20
2018-03-01T21:49:40.669Z,15.50
2018-03-01T21:52:14.744Z,15.50
2018-03-01T21:54:48.399Z,16.00
2018-03-01T21:57:22.100Z,16.10
2018-03-01T21:59:56.821Z,15.80
2018-03-01T22:02:31.243Z,15.90
2018-03-01T22:05:05.326Z,16.00
2018-03-01T22:07:39.685Z,16.40
2018-03-01T22:10:13.705Z,16.20
2018-03-01T22:12:47.469Z,16.20
2018-03-01T22:15:21.145Z,16.40
2018-03-01T22:17:54.904Z,16.50
2018-03-01T22:20:28.621Z,16.50
2018-03-01T22:23:03.158Z,16.70
2018-03-01T22:25:37.673Z,16.70
2018-03-01T22:28:12.288Z,16.00
2018-03-01T22:30:46.436Z,16.40
2018-03-01T22:33:20.399Z,17.50
2018-03-01T22:35:54.008Z,17.30
2018-03-01T22:38:28.262Z,17.20
2018-03-01T22:41:02.121Z,17.50
2018-03-01T22:43:36.926Z,17.20
2018-03-01T22:46:10.843Z,17.00
2018-03-01T22:48:45.780Z,16.70
2018-03-01T22:51:21.015Z,17.40
2018-03-01T22:53:56.489Z,16.90
2018-03-01T22:56:30.283Z,16.90
2018-03-01T22:59:04.816Z,17.50
2018-03-01T23:01:40.412Z,17.50
2018-03-01T23:04:14.898Z,17.80
2018-03-01T23:06:48.579Z,17.80
2018-03-01T23:09:23.511Z,17.60
2018-03-01T23:11:58.037Z,17.90
2018-03-01T23:14:33.527Z,18.70
2018-03-01T23:17:08.234Z,18.60
2018-03-01T23:19:42.013Z,18.60
2018-03-01T23:22:15.724Z,19.20
2018-03-01T23:24:50.246Z,18.70
2018-03-01T23:27:23.841Z,18.70
2018-03-01T23:29:58.384Z,18.70
2018-03-01T23:32:32.105Z,18.80
2018-03-01T23:35:07.100Z,19.10
2018-03-01T23:37:41.119Z,19.00
2018-03-01T23:40:14.890Z,18.70
2018-03-01T23:42:50.204Z,18.90
2018-03-01T23:45:23.935Z,19.00
2018-03-01T23:47:59.157Z,18.90
2018-03-01T23:50:33.179Z,19.30
2018-03-01T23:53:07.902Z,19.70
2018-03-01T23:55:41.860Z,19.10
2018-03-01T23:58:16.443Z,19.60
